Time;durP1;ratioP1;P1;durP2;ratioP2;P2;SDS_P1;SDS_P2;PMS_P1;PMS_P2;Temp;Humidity;BMP_temperature;BMP_pressure;BME280_temperature;BME280_humidity;BME280_pressure;Samples;Min_cycle;Max_cycle;Signal;HPM_P1;HPM_P2
2024/03/04 00:01:39;;;;;;;4.30;2.83;;;19.30;58.90;;;;;;5073247;28;20845;-81
2024/03/04 00:04:08;;;;;;;3.43;3.10;;;19.30;58.90;;;;;;5073137;28;20428;-81
2024/03/04 00:06:35;;;;;;;3.90;3.43;;;19.30;58.80;;;;;;5074106;28;20454;-81
2024/03/04 00:09:04;;;;;;;4.17;3.13;;;19.30;58.80;;;;;;5073497;28;20997;-81
2024/03/04 00:11:31;;;;;;;3.53;2.87;;;19.30;58.80;;;;;;5073535;28;20908;-81
2024/03/04 00:13:58;;;;;;;3.73;3.23;;;19.30;58.80;;;;;;5074291;28;20443;-82
2024/03/04 00:16:25;;;;;;;3.30;3.00;;;19.30;58.80;;;;;;5073165;28;20437;-81
2024/03/04 00:18:52;;;;;;;3.03;2.73;;;19.30;58.80;;;;;;5073128;28;20472;-81
2024/03/04 00:21:20;;;;;;;3.07;2.77;;;19.40;58.90;;;;;;5073163;28;20443;-81
2024/03/04 00:23:47;;;;;;;3.50;3.07;;;19.30;58.80;;;;;;5073090;28;20428;-81
2024/03/04 00:26:15;;;;;;;3.50;3.20;;;19.30;58.80;;;;;;5074050;28;20458;-80
2024/03/04 00:28:42;;;;;;;3.50;3.03;;;19.30;58.80;;;;;;5072775;28;20460;-80
2024/03/04 00:31:09;;;;;;;3.70;3.13;;;19.30;58.80;;;;;;5072899;28;20507;-82
2024/03/04 00:33:36;;;;;;;3.60;3.10;;;19.30;58.80;;;;;;5072928;28;20470;-81
2024/03/04 00:36:05;;;;;;;3.83;3.50;;;19.30;58.80;;;;;;5072964;28;20872;-82
2024/03/04 00:38:34;;;;;;;4.57;4.10;;;19.30;58.80;;;;;;5073055;28;20440;-81
2024/03/04 00:41:01;;;;;;;3.63;3.33;;;19.30;58.90;;;;;;5072846;28;20794;-81
2024/03/04 00:43:28;;;;;;;3.60;3.20;;;19.30;58.80;;;;;;5072850;28;20428;-81
2024/03/04 00:45:55;;;;;;;3.47;3.17;;;19.30;58.80;;;;;;5072816;28;20429;-81
2024/03/04 00:48:22;;;;;;;3.37;3.00;;;19.30;59.40;;;;;;5072722;28;20528;-81
2024/03/04 00:50:49;;;;;;;3.70;2.87;;;19.30;58.80;;;;;;5072681;28;20483;-82
2024/03/04 00:53:16;;;;;;;4.20;3.30;;;19.30;58.80;;;;;;5072784;28;20440;-81
2024/03/04 00:55:44;;;;;;;2.93;2.60;;;19.30;58.80;;;;;;5072532;28;20462;-81
2024/03/04 00:58:11;;;;;;;5.23;3.50;;;19.30;58.80;;;;;;5072548;28;20880;-88
2024/03/04 01:00:38;;;;;;;3.70;3.07;;;19.30;58.80;;;;;;5072684;28;20456;-82
2024/03/04 01:03:05;;;;;;;4.10;3.50;;;19.30;58.80;;;;;;5072572;28;20442;-81
2024/03/04 01:05:32;;;;;;;3.77;3.43;;;19.30;58.80;;;;;;5072634;28;20428;-81
2024/03/04 01:07:58;;;;;;;3.13;2.80;;;19.30;58.80;;;;;;5075480;28;20446;-81
2024/03/04 01:10:25;;;;;;;3.80;3.27;;;19.30;58.80;;;;;;5076234;28;20476;-81
2024/03/04 01:12:53;;;;;;;4.20;3.47;;;19.30;58.80;;;;;;5076272;28;20440;-81
2024/03/04 01:15:20;;;;;;;3.73;3.20;;;19.30;58.80;;;;;;5076189;28;20525;-82
2024/03/04 01:17:46;;;;;;;3.63;3.10;;;19.30;58.80;;;;;;5076123;28;20528;-81
2024/03/04 01:20:14;;;;;;;3.53;3.23;;;19.30;58.80;;;;;;5076185;28;20527;-81
2024/03/04 01:22:41;;;;;;;3.63;3.10;;;19.20;58.70;;;;;;5076089;28;20594;-80
2024/03/04 01:25:09;;;;;;;3.33;3.03;;;19.30;58.80;;;;;;5075980;28;20539;-81
2024/03/04 01:27:36;;;;;;;3.40;3.10;;;19.20;58.70;;;;;;5076046;28;20432;-81
2024/03/04 01:30:09;;;;;;;3.77;3.37;;;19.20;58.80;;;;;;5075965;28;20433;-81
2024/03/04 01:32:36;;;;;;;3.20;2.80;;;19.20;58.70;;;;;;5075727;28;20504;-81
2024/03/04 01:35:07;;;;;;;4.30;3.20;;;19.20;58.70;;;;;;5075978;28;20433;-81
2024/03/04 01:37:34;;;;;;;3.60;3.10;;;19.20;58.80;;;;;;5076048;28;20441;-81
2024/03/04 01:40:03;;;;;;;3.50;2.73;;;19.30;59.10;;;;;;5075829;28;20434;-81
2024/03/04 01:42:29;;;;;;;2.90;2.57;;;19.20;58.80;;;;;;5075841;28;20444;-80
2024/03/04 01:44:56;;;;;;;3.27;2.93;;;19.20;58.70;;;;;;5075749;28;20428;-81
2024/03/04 01:47:25;;;;;;;3.40;3.07;;;19.20;58.80;;;;;;5075789;28;20444;-81
2024/03/04 01:49:53;;;;;;;3.80;3.10;;;19.20;58.80;;;;;;5077759;28;20467;-81
2024/03/04 01:52:22;;;;;;;3.20;2.90;;;19.20;58.80;;;;;;5078798;28;20494;-81
2024/03/04 01:54:52;;;;;;;3.50;3.00;;;19.20;58.70;;;;;;5075958;28;20535;-84
2024/03/04 01:57:20;;;;;;;3.30;3.00;;;19.20;58.80;;;;;;5075627;28;20437;-81
2024/03/04 01:59:49;;;;;;;4.27;3.50;;;19.20;58.70;;;;;;5075402;28;20441;-81
2024/03/04 02:02:17;;;;;;;3.40;2.63;;;19.20;58.70;;;;;;5075402;28;20443;-81
2024/03/04 02:04:45;;;;;;;3.50;3.20;;;19.20;58.70;;;;;;5075534;28;20436;-80
2024/03/04 02:07:13;;;;;;;3.70;3.17;;;19.20;59.30;;;;;;5074971;28;20443;-81
2024/03/04 02:09:41;;;;;;;3.57;2.97;;;19.20;58.70;;;;;;5075306;28;20519;-83
2024/03/04 02:12:08;;;;;;;4.43;2.40;;;19.20;58.70;;;;;;5075288;28;20482;-81
2024/03/04 02:14:36;;;;;;;3.10;2.67;;;19.20;58.70;;;;;;5075255;28;21014;-81
2024/03/04 02:17:05;;;;;;;3.40;3.00;;;19.20;58.70;;;;;;5075112;28;20857;-81
2024/03/04 02:19:32;;;;;;;5.20;3.23;;;19.20;58.70;;;;;;5073900;28;20530;-81
2024/03/04 02:22:05;;;;;;;3.20;2.90;;;19.20;59.30;;;;;;5075221;28;20432;-81
2024/03/04 02:24:34;;;;;;;3.30;2.97;;;19.20;58.80;;;;;;5074907;28;21041;-87
2024/03/04 02:27:01;;;;;;;3.80;3.10;;;19.20;58.80;;;;;;5074905;28;21006;-81
2024/03/04 02:29:28;;;;;;;2.63;2.43;;;19.20;58.70;;;;;;5074820;28;20435;-84
2024/03/04 02:31:56;;;;;;;2.90;2.70;;;19.20;58.70;;;;;;5074598;28;20608;-81
2024/03/04 02:34:23;;;;;;;2.97;2.67;;;19.20;58.70;;;;;;5074964;28;20445;-86
2024/03/04 02:36:50;;;;;;;3.07;2.77;;;19.20;58.80;;;;;;5074829;28;20436;-81
2024/03/04 02:39:18;;;;;;;3.00;2.70;;;19.20;58.80;;;;;;5074623;28;20445;-81
2024/03/04 02:41:46;;;;;;;3.53;3.23;;;19.20;58.80;;;;;;5074620;28;20439;-81
2024/03/04 02:44:13;;;;;;;2.97;2.43;;;19.20;58.80;;;;;;5074559;28;20443;-81
2024/03/04 02:46:41;;;;;;;3.03;2.70;;;19.20;58.80;;;;;;5074660;28;20467;-82
2024/03/04 02:49:09;;;;;;;3.63;3.23;;;19.20;58.80;;;;;;5074547;28;20440;-81
2024/03/04 02:51:36;;;;;;;3.60;2.90;;;19.20;58.80;;;;;;5074583;28;21002;-81
2024/03/04 02:54:03;;;;;;;3.63;3.27;;;19.20;58.80;;;;;;5074343;28;20432;-81
2024/03/04 02:56:30;;;;;;;2.93;2.63;;;19.20;58.80;;;;;;5074404;28;20445;-80
2024/03/04 02:58:58;;;;;;;3.70;2.83;;;19.20;58.80;;;;;;5074172;28;20443;-81
2024/03/04 03:01:26;;;;;;;3.20;2.70;;;19.20;58.80;;;;;;5074336;28;20432;-81
2024/03/04 03:03:53;;;;;;;3.27;2.80;;;19.20;58.80;;;;;;5074296;28;20524;-87
2024/03/04 03:06:20;;;;;;;3.93;2.63;;;19.20;58.80;;;;;;5074099;28;20439;-81
2024/03/04 03:08:49;;;;;;;3.37;3.07;;;19.20;58.80;;;;;;5074454;28;20459;-83
2024/03/04 03:11:16;;;;;;;2.87;2.60;;;19.10;58.70;;;;;;5074088;28;21006;-81
2024/03/04 03:13:44;;;;;;;3.07;2.77;;;19.10;59.30;;;;;;5074012;28;20443;-81
2024/03/04 03:16:19;;;;;;;3.60;2.83;;;19.10;58.70;;;;;;5074196;28;20448;-87
2024/03/04 03:18:47;;;;;;;3.30;3.00;;;19.10;58.70;;;;;;5074428;28;20448;-88
2024/03/04 03:21:14;;;;;;;2.97;2.67;;;19.10;58.70;;;;;;5074243;28;20436;-82
2024/03/04 03:23:43;;;;;;;3.53;2.70;;;19.20;58.80;;;;;;5073857;28;20512;-80
2024/03/04 03:26:10;;;;;;;2.70;2.50;;;19.10;58.70;;;;;;5073830;28;20436;-86
2024/03/04 03:28:38;;;;;;;3.07;2.77;;;19.10;58.70;;;;;;5072480;28;20445;-84
2024/03/04 03:31:05;;;;;;;3.00;2.70;;;19.10;58.70;;;;;;5073242;28;20626;-80
2024/03/04 03:33:33;;;;;;;3.60;2.70;;;19.10;58.70;;;;;;5073607;28;20942;-87
2024/03/04 03:36:01;;;;;;;2.67;2.43;;;19.10;58.70;;;;;;5074189;28;20527;-82
2024/03/04 03:38:28;;;;;;;3.30;2.83;;;19.10;58.70;;;;;;5073751;28;21002;-80
2024/03/04 03:40:55;;;;;;;3.13;2.80;;;19.10;58.70;;;;;;5072770;28;20480;-80
2024/03/04 03:43:22;;;;;;;3.30;3.00;;;19.10;58.80;;;;;;5073708;28;20440;-80
2024/03/04 03:45:49;;;;;;;3.20;2.90;;;19.10;58.70;;;;;;5073715;28;20447;-81
2024/03/04 03:48:17;;;;;;;3.97;3.30;;;19.10;58.70;;;;;;5073715;28;20531;-81
2024/03/04 03:50:46;;;;;;;3.03;2.77;;;19.10;58.70;;;;;;5073419;28;20444;-86
2024/03/04 03:53:13;;;;;;;3.13;2.60;;;19.10;58.70;;;;;;5073803;28;20840;-81
2024/03/04 03:55:40;;;;;;;3.10;2.80;;;19.10;58.80;;;;;;5073394;28;20468;-84
2024/03/04 03:58:07;;;;;;;3.30;3.00;;;19.10;58.70;;;;;;5073415;28;20935;-81
2024/03/04 04:00:36;;;;;;;3.30;2.73;;;19.10;58.70;;;;;;5073231;28;20459;-80
2024/03/04 04:03:03;;;;;;;3.40;3.10;;;19.10;58.70;;;;;;5073523;28;20441;-84
2024/03/04 04:05:30;;;;;;;3.20;2.80;;;19.10;58.70;;;;;;5073656;28;20527;-80
2024/03/04 04:07:58;;;;;;;3.37;3.07;;;19.10;58.70;;;;;;5073485;28;20433;-81
2024/03/04 04:10:25;;;;;;;3.70;2.80;;;19.10;58.70;;;;;;5073350;28;20443;-81
2024/03/04 04:12:52;;;;;;;2.83;2.57;;;19.10;58.80;;;;;;5073184;28;20666;-80
2024/03/04 04:15:19;;;;;;;3.70;3.33;;;19.10;58.80;;;;;;5073232;28;20531;-80
2024/03/04 04:17:46;;;;;;;4.00;3.60;;;19.10;58.80;;;;;;5073275;28;20436;-81
2024/03/04 04:20:13;;;;;;;3.10;2.80;;;19.10;58.80;;;;;;5073105;28;20793;-81
2024/03/04 04:22:40;;;;;;;3.13;2.83;;;19.10;58.80;;;;;;5073589;28;20440;-81
2024/03/04 04:25:10;;;;;;;3.20;2.70;;;19.10;59.40;;;;;;5073147;28;20882;-89
2024/03/04 04:27:37;;;;;;;3.73;2.87;;;19.10;58.80;;;;;;5073159;28;20440;-81
2024/03/04 04:30:06;;;;;;;3.23;2.93;;;19.10;58.80;;;;;;5073253;28;20438;-81
2024/03/04 04:32:34;;;;;;;2.90;2.47;;;19.00;58.70;;;;;;5072940;28;20528;-81
2024/03/04 04:35:02;;;;;;;3.60;3.00;;;19.00;58.70;;;;;;5073168;28;20476;-81
2024/03/04 04:37:29;;;;;;;3.90;3.00;;;19.10;58.80;;;;;;5079426;28;20456;-81
2024/03/04 04:39:55;;;;;;;3.37;2.90;;;19.10;58.80;;;;;;5078131;28;20856;-80
2024/03/04 04:42:23;;;;;;;4.07;2.93;;;19.10;58.80;;;;;;5078168;28;20471;-80
2024/03/04 04:44:51;;;;;;;2.33;2.13;;;19.10;58.80;;;;;;5076927;28;20471;-84
2024/03/04 04:47:17;;;;;;;2.87;2.57;;;19.00;58.70;;;;;;5076847;28;21031;-80
2024/03/04 04:49:44;;;;;;;2.90;2.57;;;19.00;58.70;;;;;;5076924;28;20444;-82
2024/03/04 04:52:11;;;;;;;2.80;2.60;;;19.00;59.30;;;;;;5076849;28;20841;-81
2024/03/04 04:54:38;;;;;;;3.10;2.80;;;19.10;58.80;;;;;;5076715;28;20459;-80
2024/03/04 04:57:05;;;;;;;2.97;2.67;;;19.00;59.30;;;;;;5076677;28;20443;-84
2024/03/04 04:59:33;;;;;;;3.70;3.30;;;19.10;58.80;;;;;;5076861;28;20920;-80
2024/03/04 05:02:00;;;;;;;3.50;3.20;;;19.00;58.70;;;;;;5076605;28;20438;-80
2024/03/04 05:04:27;;;;;;;3.07;2.70;;;19.00;58.70;;;;;;5076544;28;20439;-84
2024/03/04 05:06:54;;;;;;;3.50;3.13;;;19.00;58.70;;;;;;5076614;28;20536;-80
2024/03/04 05:09:22;;;;;;;3.60;3.30;;;19.00;58.70;;;;;;5076476;28;20428;-83
2024/03/04 05:11:49;;;;;;;3.30;2.80;;;19.00;58.70;;;;;;5076247;28;21030;-80
2024/03/04 05:14:16;;;;;;;3.20;2.90;;;19.00;58.70;;;;;;5076349;28;20444;-81
2024/03/04 05:16:44;;;;;;;3.47;3.17;;;19.00;59.30;;;;;;5076493;28;20536;-87
2024/03/04 05:19:11;;;;;;;3.87;3.50;;;19.00;58.70;;;;;;5076207;28;20935;-81
2024/03/04 05:21:38;;;;;;;3.10;2.63;;;19.10;58.80;;;;;;5077141;28;20523;-83
2024/03/04 05:24:05;;;;;;;3.23;2.93;;;19.10;58.80;;;;;;5077398;28;20550;-81
2024/03/04 05:26:32;;;;;;;3.53;3.20;;;19.00;58.70;;;;;;5076600;28;20978;-81
2024/03/04 05:29:00;;;;;;;3.43;2.90;;;19.00;58.70;;;;;;5076404;28;20523;-80
2024/03/04 05:31:27;;;;;;;3.40;2.43;;;19.00;58.70;;;;;;5075965;28;20843;-81
2024/03/04 05:33:56;;;;;;;3.63;3.30;;;19.00;58.70;;;;;;5075941;28;20468;-80
2024/03/04 05:36:23;;;;;;;3.33;2.60;;;19.10;58.80;;;;;;5075917;28;20447;-81
2024/03/04 05:38:50;;;;;;;3.10;2.80;;;19.00;58.70;;;;;;5075849;28;20428;-81
2024/03/04 05:41:16;;;;;;;3.67;2.93;;;19.00;58.70;;;;;;5075897;28;20443;-81
2024/03/04 05:43:43;;;;;;;3.27;2.97;;;19.00;58.70;;;;;;5075914;28;20440;-83
2024/03/04 05:46:10;;;;;;;3.10;2.80;;;19.00;58.70;;;;;;5075984;28;20770;-81
2024/03/04 05:48:37;;;;;;;2.80;2.50;;;19.00;59.30;;;;;;5075666;28;20432;-84
2024/03/04 05:51:05;;;;;;;3.50;3.10;;;19.00;58.70;;;;;;5075629;28;20498;-81
2024/03/04 05:53:32;;;;;;;3.33;2.80;;;19.00;58.80;;;;;;5075585;28;20567;-81
2024/03/04 05:55:59;;;;;;;3.90;2.80;;;19.00;58.70;;;;;;5078450;28;20826;-81
2024/03/04 05:58:26;;;;;;;3.87;3.20;;;19.00;58.70;;;;;;5077367;28;20447;-81
2024/03/04 06:00:53;;;;;;;3.90;3.30;;;19.00;58.80;;;;;;5076772;28;20468;-80
2024/03/04 06:03:19;;;;;;;3.00;2.70;;;19.00;59.30;;;;;;5075716;28;20436;-81
2024/03/04 06:05:46;;;;;;;3.20;2.80;;;19.00;59.40;;;;;;5075777;28;20447;-81
2024/03/04 06:08:14;;;;;;;3.50;2.80;;;19.00;58.80;;;;;;5075736;28;20539;-83
2024/03/04 06:10:42;;;;;;;2.93;2.53;;;19.00;58.80;;;;;;5075602;28;20512;-86
2024/03/04 06:13:09;;;;;;;2.93;2.60;;;19.00;58.80;;;;;;5075206;28;20483;-81
2024/03/04 06:15:36;;;;;;;3.83;3.23;;;19.00;58.80;;;;;;5075303;28;20915;-79
2024/03/04 06:18:04;;;;;;;3.60;3.30;;;19.00;58.80;;;;;;5075526;28;20523;-81
2024/03/04 06:20:31;;;;;;;3.63;3.17;;;19.00;58.80;;;;;;5075228;28;20845;-82
2024/03/04 06:22:58;;;;;;;3.07;2.73;;;18.90;58.70;;;;;;5075233;28;20524;-80
2024/03/04 06:25:26;;;;;;;4.93;2.80;;;19.00;58.80;;;;;;5075141;28;20458;-87
2024/03/04 06:27:53;;;;;;;3.30;3.00;;;19.00;58.80;;;;;;5074976;28;20521;-81
2024/03/04 06:30:20;;;;;;;2.73;2.43;;;18.90;58.70;;;;;;5075008;28;20928;-81
2024/03/04 06:32:47;;;;;;;4.37;3.37;;;18.90;58.70;;;;;;5074869;28;20492;-81
2024/03/04 06:35:13;;;;;;;3.47;3.17;;;19.00;59.40;;;;;;5075100;28;20444;-81
2024/03/04 06:37:40;;;;;;;3.40;2.87;;;18.90;58.70;;;;;;5074894;28;20440;-81
2024/03/04 06:40:09;;;;;;;3.67;3.30;;;18.90;58.70;;;;;;5074800;28;20436;-81
2024/03/04 06:42:37;;;;;;;2.67;2.47;;;18.90;58.70;;;;;;5074815;28;20449;-83
2024/03/04 06:45:05;;;;;;;3.20;2.90;;;19.00;58.80;;;;;;5074882;28;20519;-80
2024/03/04 06:47:33;;;;;;;3.17;2.83;;;18.90;59.30;;;;;;5074569;28;20516;-80
2024/03/04 06:50:00;;;;;;;3.20;2.90;;;18.90;58.70;;;;;;5074508;28;20521;-80
2024/03/04 06:52:26;;;;;;;5.10;3.33;;;18.90;58.70;;;;;;5074711;28;20476;-82
2024/03/04 06:54:53;;;;;;;2.83;2.40;;;18.90;58.70;;;;;;5074471;28;20453;-88
2024/03/04 06:57:20;;;;;;;4.80;3.00;;;18.90;58.70;;;;;;5074539;28;20447;-80
2024/03/04 06:59:48;;;;;;;3.30;3.00;;;18.90;58.70;;;;;;5074332;28;20505;-80
2024/03/04 07:02:15;;;;;;;3.43;3.13;;;18.90;58.80;;;;;;5074342;28;20548;-80
2024/03/04 07:04:42;;;;;;;4.13;3.43;;;19.00;58.80;;;;;;5073627;28;20447;-80
2024/03/04 07:07:09;;;;;;;3.30;3.00;;;18.90;58.80;;;;;;5074075;28;20953;-80
2024/03/04 07:09:36;;;;;;;3.27;2.90;;;18.90;58.80;;;;;;5074244;28;20462;-80
2024/03/04 07:12:03;;;;;;;3.30;3.00;;;18.90;58.80;;;;;;5074053;28;20511;-80
2024/03/04 07:14:30;;;;;;;3.97;3.40;;;18.90;58.80;;;;;;5074152;28;21006;-80
2024/03/04 07:16:58;;;;;;;3.43;3.13;;;18.90;58.70;;;;;;5074129;28;20460;-80
2024/03/04 07:19:25;;;;;;;3.83;3.20;;;18.90;58.70;;;;;;5074066;28;20440;-86
2024/03/04 07:21:52;;;;;;;2.80;2.50;;;18.90;58.80;;;;;;5074024;28;20439;-81
2024/03/04 07:24:18;;;;;;;3.20;2.77;;;18.90;58.70;;;;;;5073851;28;20892;-80
2024/03/04 07:26:45;;;;;;;3.80;3.40;;;18.90;59.30;;;;;;5078049;28;20515;-80
2024/03/04 07:29:12;;;;;;;4.10;2.97;;;18.90;58.80;;;;;;5078890;28;20437;-80
2024/03/04 07:31:39;;;;;;;3.40;3.10;;;18.90;58.80;;;;;;5074153;28;20429;-80
2024/03/04 07:34:07;;;;;;;3.70;3.07;;;18.90;59.30;;;;;;5073949;28;20595;-81
2024/03/04 07:36:34;;;;;;;4.17;3.53;;;18.90;58.80;;;;;;5073805;28;20527;-87
2024/03/04 07:39:03;;;;;;;3.13;2.83;;;18.90;58.80;;;;;;5073824;28;20982;-80
2024/03/04 07:41:30;;;;;;;3.97;3.23;;;18.90;58.80;;;;;;5073646;28;20480;-80
2024/03/04 07:43:57;;;;;;;3.20;2.90;;;18.90;58.80;;;;;;5073699;28;20524;-86
2024/03/04 07:46:24;;;;;;;2.93;2.67;;;18.90;58.80;;;;;;5073555;28;20528;-80
2024/03/04 07:48:51;;;;;;;3.33;3.03;;;18.90;58.80;;;;;;5073646;28;20436;-80
2024/03/04 07:51:19;;;;;;;3.40;3.10;;;18.90;58.80;;;;;;5073788;28;20428;-80
2024/03/04 07:53:46;;;;;;;4.77;4.17;;;18.90;58.80;;;;;;5073286;28;21020;-80
2024/03/04 07:56:12;;;;;;;2.60;2.23;;;18.90;58.80;;;;;;5073372;28;20436;-86
2024/03/04 07:58:40;;;;;;;2.83;2.53;;;18.90;58.80;;;;;;5073398;28;20433;-80
2024/03/04 08:01:08;;;;;;;3.13;2.83;;;18.90;58.80;;;;;;5073394;28;20441;-81
2024/03/04 08:03:36;;;;;;;3.80;2.93;;;18.90;58.80;;;;;;5073421;28;20437;-80
2024/03/04 08:06:03;;;;;;;3.50;3.10;;;18.90;58.80;;;;;;5073226;28;20931;-84
2024/03/04 08:08:31;;;;;;;3.17;2.73;;;18.90;58.80;;;;;;5073460;28;20531;-81
2024/03/04 08:10:58;;;;;;;3.07;2.70;;;18.90;58.80;;;;;;5073377;28;20794;-87
2024/03/04 08:13:26;;;;;;;3.63;3.33;;;18.90;58.80;;;;;;5073158;28;20494;-81
2024/03/04 08:15:53;;;;;;;3.20;2.30;;;18.90;58.80;;;;;;5073387;28;20436;-80
2024/03/04 08:18:20;;;;;;;3.23;2.77;;;18.90;59.40;;;;;;5073121;28;20451;-81
2024/03/04 08:20:48;;;;;;;3.03;2.73;;;18.90;58.80;;;;;;5073250;28;20803;-80
2024/03/04 08:23:15;;;;;;;2.60;2.40;;;18.90;58.80;;;;;;5073232;28;20459;-87
2024/03/04 08:25:43;;;;;;;3.60;2.73;;;18.90;58.80;;;;;;5072951;28;20810;-80
2024/03/04 08:28:11;;;;;;;3.10;2.40;;;18.90;58.80;;;;;;5073085;28;20436;-81
2024/03/04 08:30:38;;;;;;;2.87;2.60;;;18.90;59.40;;;;;;5072912;28;20433;-80
2024/03/04 08:33:05;;;;;;;4.07;3.07;;;18.90;58.80;;;;;;5072856;28;20987;-80
2024/03/04 08:35:32;;;;;;;3.63;2.87;;;18.90;58.80;;;;;;5072956;28;20447;-80
2024/03/04 08:37:59;;;;;;;3.17;2.87;;;18.90;58.80;;;;;;5072995;28;20536;-80
2024/03/04 08:40:26;;;;;;;3.10;2.80;;;18.80;58.70;;;;;;5072992;28;20440;-80
2024/03/04 08:42:54;;;;;;;2.80;2.50;;;18.90;58.80;;;;;;5072978;28;20962;-80
2024/03/04 08:45:21;;;;;;;3.10;2.80;;;18.90;59.40;;;;;;5072960;28;20433;-81
2024/03/04 08:47:48;;;;;;;3.40;3.00;;;18.90;58.80;;;;;;5072723;28;21008;-80
2024/03/04 08:50:15;;;;;;;2.87;2.57;;;18.90;58.80;;;;;;5072781;28;20932;-88
2024/03/04 08:52:42;;;;;;;2.63;2.43;;;18.80;58.70;;;;;;5072857;28;20872;-80
2024/03/04 08:55:10;;;;;;;3.47;2.80;;;18.90;58.80;;;;;;5072907;28;20814;-80
2024/03/04 08:57:37;;;;;;;3.20;2.87;;;18.80;58.70;;;;;;5072665;28;20432;-80
2024/03/04 09:00:07;;;;;;;2.53;2.13;;;18.90;58.80;;;;;;5072626;28;20432;-80
2024/03/04 09:02:34;;;;;;;3.27;2.80;;;18.80;58.70;;;;;;5072873;28;20443;-87
2024/03/04 09:05:00;;;;;;;3.33;2.40;;;18.80;58.70;;;;;;5072683;28;20436;-81
2024/03/04 09:07:27;;;;;;;3.03;2.43;;;18.90;58.80;;;;;;5072856;28;20869;-80
2024/03/04 09:09:54;;;;;;;3.07;2.53;;;18.90;58.80;;;;;;5072813;28;20440;-80
2024/03/04 09:12:21;;;;;;;2.83;2.50;;;18.90;58.80;;;;;;5072655;28;20941;-86
2024/03/04 09:14:48;;;;;;;2.60;2.40;;;18.90;58.80;;;;;;5072647;28;20492;-80
2024/03/04 09:17:16;;;;;;;3.10;2.50;;;18.80;58.70;;;;;;5072714;28;20517;-80
2024/03/04 09:19:44;;;;;;;2.57;2.37;;;18.80;59.20;;;;;;5072538;28;20527;-83
2024/03/04 09:22:11;;;;;;;2.83;2.53;;;18.90;58.80;;;;;;5072498;28;21007;-80
2024/03/04 09:24:38;;;;;;;3.33;3.03;;;18.90;58.80;;;;;;5072397;28;20989;-80
2024/03/04 09:27:06;;;;;;;2.67;2.43;;;18.80;58.70;;;;;;5072527;28;20782;-81
2024/03/04 09:29:33;;;;;;;2.53;2.27;;;18.80;58.70;;;;;;5076066;28;21047;-80
2024/03/04 09:31:59;;;;;;;3.63;2.93;;;18.80;58.70;;;;;;5076014;28;20466;-80
2024/03/04 09:34:27;;;;;;;2.60;2.40;;;18.90;58.80;;;;;;5076085;28;20491;-81
2024/03/04 09:36:54;;;;;;;4.83;2.60;;;18.80;58.70;;;;;;5076337;28;20543;-80
2024/03/04 09:39:21;;;;;;;3.27;2.80;;;18.90;58.80;;;;;;5076009;28;20437;-80
2024/03/04 09:41:48;;;;;;;3.07;2.70;;;18.80;58.70;;;;;;5076019;28;20436;-80
2024/03/04 09:44:16;;;;;;;2.53;2.33;;;18.80;58.70;;;;;;5075914;28;20865;-82
2024/03/04 09:46:45;;;;;;;2.70;2.40;;;18.90;58.80;;;;;;5075807;28;20524;-80
2024/03/04 09:49:14;;;;;;;2.87;2.67;;;18.80;58.70;;;;;;5075802;28;20524;-80
2024/03/04 09:51:45;;;;;;;2.73;2.50;;;18.80;58.70;;;;;;5075762;28;20439;-80
2024/03/04 09:54:14;;;;;;;3.20;2.90;;;18.80;58.70;;;;;;5075585;28;20575;-81
2024/03/04 09:56:42;;;;;;;2.87;2.27;;;18.80;59.30;;;;;;5075696;28;20527;-86
2024/03/04 09:59:10;;;;;;;2.90;2.43;;;18.80;58.70;;;;;;5075511;28;20426;-81
2024/03/04 10:01:37;;;;;;;2.70;2.30;;;18.90;58.80;;;;;;5075642;28;20429;-80
2024/03/04 10:04:06;;;;;;;2.87;2.50;;;18.80;58.70;;;;;;5075546;28;20524;-80
2024/03/04 10:06:33;;;;;;;3.20;2.90;;;18.80;58.70;;;;;;5075414;28;20444;-85
2024/03/04 10:09:01;;;;;;;3.27;2.90;;;18.80;58.70;;;;;;5075365;28;20460;-80
2024/03/04 10:11:28;;;;;;;2.90;2.53;;;18.90;58.80;;;;;;5075486;28;20523;-80
2024/03/04 10:13:55;;;;;;;2.80;2.50;;;18.80;58.70;;;;;;5078519;28;20483;-80
2024/03/04 10:16:22;;;;;;;2.73;2.40;;;18.80;58.70;;;;;;5076704;28;20421;-80
2024/03/04 10:19:00;;;;;;;3.17;2.87;;;18.80;58.70;;;;;;5075506;28;20527;-80
2024/03/04 10:21:28;;;;;;;2.80;2.50;;;18.80;58.70;;;;;;5075257;28;20452;-82
2024/03/04 10:23:56;;;;;;;2.97;2.70;;;18.80;58.70;;;;;;5075393;28;20859;-80
2024/03/04 10:26:26;;;;;;;2.70;2.50;;;18.80;58.70;;;;;;5075029;28;20436;-80
2024/03/04 10:28:53;;;;;;;2.83;2.47;;;18.80;58.70;;;;;;5074943;28;20441;-81
2024/03/04 10:31:20;;;;;;;3.30;3.00;;;18.80;58.70;;;;;;5075010;28;20809;-79
2024/03/04 10:33:47;;;;;;;2.70;2.30;;;18.80;58.70;;;;;;5074753;28;20502;-81
2024/03/04 10:36:16;;;;;;;2.40;2.20;;;18.80;58.70;;;;;;5075034;28;20436;-87
2024/03/04 10:38:45;;;;;;;2.70;2.50;;;18.80;58.70;;;;;;5074187;28;20478;-80
2024/03/04 10:41:16;;;;;;;2.80;2.43;;;18.80;58.70;;;;;;5074424;28;20436;-80
2024/03/04 10:43:45;;;;;;;2.83;2.50;;;18.80;59.30;;;;;;5074793;28;20436;-80
2024/03/04 10:46:12;;;;;;;2.83;2.57;;;18.80;58.70;;;;;;5074611;28;20454;-80
2024/03/04 10:48:39;;;;;;;3.10;2.40;;;18.80;58.80;;;;;;5074590;28;20524;-80
2024/03/04 10:51:07;;;;;;;2.63;2.43;;;18.80;58.80;;;;;;5074636;28;20444;-80
2024/03/04 10:53:34;;;;;;;2.73;2.47;;;18.80;58.70;;;;;;5074360;28;20464;-80
2024/03/04 10:56:05;;;;;;;2.77;2.30;;;18.80;58.70;;;;;;5074429;28;20531;-87
2024/03/04 10:58:33;;;;;;;2.57;2.37;;;18.80;58.70;;;;;;5074522;28;20793;-80
2024/03/04 11:01:09;;;;;;;3.10;2.80;;;18.80;58.70;;;;;;5074341;28;20896;-79
2024/03/04 11:03:40;;;;;;;3.60;2.60;;;18.80;58.70;;;;;;5074450;28;20440;-81
2024/03/04 11:06:10;;;;;;;2.70;2.23;;;18.80;58.70;;;;;;5074054;28;20440;-80
2024/03/04 11:08:39;;;;;;;3.40;2.87;;;18.80;58.70;;;;;;5074322;28;20523;-80
2024/03/04 11:11:12;;;;;;;2.80;2.43;;;18.80;58.70;;;;;;5074361;28;20983;-81
2024/03/04 11:13:48;;;;;;;2.80;2.50;;;18.80;59.30;;;;;;5074171;28;20566;-80
2024/03/04 11:16:20;;;;;;;2.63;2.40;;;18.80;58.70;;;;;;5074383;28;20491;-81
2024/03/04 11:18:56;;;;;;;3.50;3.10;;;18.80;58.70;;;;;;5073993;28;20444;-80
2024/03/04 11:21:23;;;;;;;3.47;2.40;;;18.80;58.80;;;;;;5073981;28;20430;-80
2024/03/04 11:23:52;;;;;;;3.20;2.77;;;18.80;58.80;;;;;;5073881;28;20464;-80
2024/03/04 11:26:20;;;;;;;2.80;2.40;;;18.80;58.70;;;;;;5073718;28;21011;-80
2024/03/04 11:28:47;;;;;;;3.07;2.47;;;18.80;58.80;;;;;;5074129;28;20433;-79
2024/03/04 11:31:25;;;;;;;3.57;2.77;;;18.80;58.80;;;;;;5074294;28;20443;-80
2024/03/04 11:34:01;;;;;;;2.40;2.17;;;18.80;58.80;;;;;;5073637;28;21001;-80
2024/03/04 11:36:28;;;;;;;2.73;2.43;;;18.80;58.80;;;;;;5073737;28;20439;-80
2024/03/04 11:38:56;;;;;;;2.23;1.80;;;18.80;58.80;;;;;;5073980;28;20444;-80
2024/03/04 11:41:40;;;;;;;3.10;2.70;;;18.80;59.40;;;;;;5074721;28;20432;-87
2024/03/04 11:44:08;;;;;;;2.60;2.30;;;18.80;59.40;;;;;;5073632;28;20444;-80
2024/03/04 11:46:39;;;;;;;2.60;2.10;;;18.70;58.70;;;;;;5073637;28;20783;-80
2024/03/04 11:49:26;;;;;;;2.77;2.30;;;18.80;58.80;;;;;;5073609;28;20432;-80
2024/03/04 11:52:04;;;;;;;2.67;2.30;;;18.80;58.80;;;;;;5073387;28;20518;-80
2024/03/04 11:54:40;;;;;;;2.83;2.47;;;18.80;58.80;;;;;;5073598;28;20484;-79
2024/03/04 11:57:08;;;;;;;2.60;2.40;;;18.70;58.70;;;;;;5073577;28;20432;-81
2024/03/04 11:59:35;;;;;;;2.70;2.20;;;18.70;58.70;;;;;;5073414;28;20935;-81
2024/03/04 12:02:09;;;;;;;2.97;2.67;;;18.80;58.80;;;;;;5073345;28;20436;-81
2024/03/04 12:04:36;;;;;;;2.47;1.93;;;18.80;58.80;;;;;;5073395;28;21004;-81
2024/03/04 12:07:04;;;;;;;2.40;2.20;;;18.70;58.70;;;;;;5073224;28;20538;-81
2024/03/04 12:09:31;;;;;;;3.10;2.40;;;18.80;58.80;;;;;;5073170;28;20464;-82
2024/03/04 12:11:58;;;;;;;2.80;2.30;;;18.80;58.80;;;;;;5073339;28;20429;-82
2024/03/04 12:14:25;;;;;;;2.47;2.17;;;18.70;58.70;;;;;;5073272;28;20856;-81
2024/03/04 12:16:51;;;;;;;3.10;2.80;;;18.80;58.80;;;;;;5073196;28;20441;-81
2024/03/04 12:19:20;;;;;;;3.00;2.50;;;18.80;58.80;;;;;;5073346;28;20862;-81
2024/03/04 12:21:48;;;;;;;2.50;2.10;;;18.80;58.80;;;;;;5073301;28;20920;-81
2024/03/04 12:24:17;;;;;;;2.77;2.43;;;18.80;58.80;;;;;;5073075;28;20465;-81
2024/03/04 12:26:49;;;;;;;3.00;2.50;;;18.80;58.80;;;;;;5073092;28;20440;-81
2024/03/04 12:29:21;;;;;;;2.50;2.30;;;18.70;58.70;;;;;;5073108;28;20859;-81
2024/03/04 12:31:50;;;;;;;2.40;2.20;;;18.70;58.70;;;;;;5072935;28;20927;-81
2024/03/04 12:34:18;;;;;;;3.07;2.30;;;18.70;58.70;;;;;;5072935;28;20475;-81
2024/03/04 12:36:49;;;;;;;3.10;2.40;;;18.80;58.80;;;;;;5073163;28;20433;-81
2024/03/04 12:39:16;;;;;;;2.90;2.60;;;18.80;58.80;;;;;;5072974;28;20437;-81
2024/03/04 12:41:43;;;;;;;2.93;2.53;;;18.70;58.70;;;;;;5072920;28;20439;-81
2024/03/04 12:44:10;;;;;;;2.60;2.30;;;18.70;58.70;;;;;;5073402;28;20441;-81
2024/03/04 12:46:37;;;;;;;2.60;2.20;;;18.80;58.80;;;;;;5072803;28;20438;-81
2024/03/04 12:49:04;;;;;;;3.43;2.30;;;18.70;58.70;;;;;;5072876;28;20432;-81
2024/03/04 12:51:34;;;;;;;2.50;2.10;;;18.80;58.80;;;;;;5073106;28;20515;-81